createdAt,value
2018-11-23T00:00:53.499Z,19.07
2018-11-23T00:03:21.955Z,14.60
2018-11-23T00:05:50.436Z,15.83
2018-11-23T00:08:18.907Z,16.30
2018-11-23T00:10:47.391Z,13.70
2018-11-23T00:13:15.832Z,13.30
2018-11-23T00:15:44.299Z,15.83
2018-11-23T00:18:12.766Z,16.73
2018-11-23T00:20:41.220Z,18.57
2018-11-23T00:23:09.691Z,18.77
2018-11-23T00:25:38.143Z,17.37
2018-11-23T00:28:06.616Z,18.77
2018-11-23T00:30:35.081Z,33.50
2018-11-23T00:33:03.572Z,23.70
2018-11-23T00:35:32.044Z,29.73
2018-11-23T00:38:00.511Z,31.20
2018-11-23T00:40:31.183Z,23.07
2018-11-23T00:43:00.117Z,28.20
2018-11-23T00:45:28.584Z,27.40
2018-11-23T00:47:57.792Z,23.20
2018-11-23T00:50:26.887Z,25.40
2018-11-23T00:52:56.391Z,26.27
2018-11-23T00:55:25.709Z,26.50
2018-11-23T00:57:54.367Z,16.30
2018-11-23T01:00:25.303Z,21.47
2018-11-23T01:02:54.305Z,23.17
2018-11-23T01:05:22.975Z,23.53
2018-11-23T01:07:51.537Z,19.43
2018-11-23T01:10:21.294Z,19.33
2018-11-23T01:12:50.772Z,22.50
2018-11-23T01:15:19.267Z,17.70
2018-11-23T01:17:47.735Z,17.10
2018-11-23T01:20:19.687Z,12.03
2018-11-23T01:22:48.697Z,11.10
2018-11-23T01:25:18.522Z,13.37
2018-11-23T01:27:48.019Z,10.93
2018-11-23T01:30:21.807Z,14.60
2018-11-23T01:32:50.343Z,12.40
2018-11-23T01:35:18.830Z,12.77
2018-11-23T01:37:47.299Z,11.03
2018-11-23T01:40:21.298Z,14.83
2018-11-23T01:42:49.775Z,13.90
2018-11-23T01:45:18.331Z,17.23
2018-11-23T01:47:46.807Z,14.20
2018-11-23T01:50:21.496Z,15.93
2018-11-23T01:52:50.563Z,19.87
2018-11-23T01:55:19.847Z,15.13
2018-11-23T01:57:48.365Z,19.93
2018-11-23T02:00:19.291Z,17.70
2018-11-23T02:02:48.416Z,20.80
2018-11-23T02:05:16.903Z,18.13
2018-11-23T02:07:45.371Z,18.90
2018-11-23T02:10:15.130Z,15.20
2018-11-23T02:12:43.632Z,19.40
2018-11-23T02:15:14.651Z,18.40
2018-11-23T02:17:43.199Z,22.30
2018-11-23T02:20:12.944Z,12.87
2018-11-23T02:22:41.451Z,20.23
2018-11-23T02:25:10.004Z,18.63
2018-11-23T02:27:38.555Z,16.57
2018-11-23T02:30:13.945Z,20.27
2018-11-23T02:32:42.784Z,17.03
2018-11-23T02:35:11.330Z,15.00
2018-11-23T02:37:39.860Z,16.67
2018-11-23T02:40:09.196Z,12.30
2018-11-23T02:42:38.091Z,12.23
2018-11-23T02:45:08.704Z,11.80
2018-11-23T02:47:37.160Z,12.00
2018-11-23T02:50:06.184Z,10.43
2018-11-23T02:52:34.652Z,9.23
2018-11-23T02:55:03.115Z,8.73
2018-11-23T02:57:31.592Z,9.70
2018-11-23T03:00:00.069Z,12.03
2018-11-23T03:02:28.575Z,12.33
2018-11-23T03:04:57.031Z,20.20
2018-11-23T03:07:25.520Z,13.73
2018-11-23T03:09:54.007Z,13.43
2018-11-23T03:12:22.455Z,11.87
2018-11-23T03:14:50.904Z,10.73
2018-11-23T03:17:19.383Z,11.13
2018-11-23T03:19:47.835Z,11.50
2018-11-23T03:22:16.284Z,7.73
2018-11-23T03:24:44.816Z,12.83
2018-11-23T03:27:13.284Z,13.53
2018-11-23T03:29:41.736Z,13.20
2018-11-23T03:32:10.187Z,11.57
2018-11-23T03:34:38.655Z,11.10
2018-11-23T03:37:07.135Z,11.87
2018-11-23T03:39:35.595Z,13.40
2018-11-23T03:42:04.082Z,10.73
2018-11-23T03:44:32.611Z,7.70
2018-11-23T03:47:01.072Z,9.87
2018-11-23T03:49:29.531Z,11.20
2018-11-23T03:51:57.983Z,8.33
2018-11-23T03:54:26.428Z,9.33
2018-11-23T03:56:54.907Z,9.90
2018-11-23T03:59:23.364Z,10.37
2018-11-23T04:01:51.823Z,13.40
2018-11-23T04:04:20.276Z,10.20
2018-11-23T04:06:48.735Z,8.90
2018-11-23T04:09:17.189Z,10.97
2018-11-23T04:11:45.655Z,9.37
2018-11-23T04:14:14.112Z,11.70
2018-11-23T04:16:42.598Z,9.37
2018-11-23T04:19:11.055Z,11.00
2018-11-23T04:21:39.511Z,8.93
2018-11-23T04:24:07.967Z,9.20
2018-11-23T04:26:36.418Z,10.77
2018-11-23T04:29:05.391Z,9.83
2018-11-23T04:31:33.863Z,30.43
2018-11-23T04:34:02.315Z,9.60
2018-11-23T04:36:30.792Z,7.77
2018-11-23T04:38:59.255Z,8.43
2018-11-23T04:41:27.723Z,9.03
2018-11-23T04:43:56.207Z,8.80
2018-11-23T04:46:24.667Z,8.10
2018-11-23T04:48:53.124Z,9.87
2018-11-23T04:51:21.572Z,9.10
2018-11-23T04:53:50.039Z,10.67
2018-11-23T04:56:18.494Z,10.17
2018-11-23T04:58:46.947Z,8.00
2018-11-23T05:01:15.409Z,8.83
2018-11-23T05:03:43.873Z,11.83
2018-11-23T05:06:12.335Z,7.87
2018-11-23T05:08:40.804Z,10.20
2018-11-23T05:11:09.296Z,11.03
2018-11-23T05:13:37.763Z,10.47
2018-11-23T05:16:06.227Z,8.73
2018-11-23T05:18:34.703Z,12.03
2018-11-23T05:21:03.167Z,10.37
2018-11-23T05:23:31.631Z,11.67
2018-11-23T05:26:00.111Z,7.80
2018-11-23T05:28:28.571Z,8.30
2018-11-23T05:30:57.027Z,8.87
2018-11-23T05:33:25.499Z,10.10
2018-11-23T05:35:53.976Z,9.30
2018-11-23T05:38:22.453Z,10.43
2018-11-23T05:40:50.955Z,8.50
2018-11-23T05:43:19.411Z,8.77
2018-11-23T05:45:47.897Z,7.40
2018-11-23T05:48:16.348Z,9.30
2018-11-23T05:50:44.812Z,9.80
2018-11-23T05:53:13.279Z,9.20
2018-11-23T05:55:41.743Z,9.27
2018-11-23T05:58:10.218Z,10.60
2018-11-23T06:00:38.745Z,11.47
2018-11-23T06:03:07.240Z,8.40
2018-11-23T06:05:35.711Z,7.37
2018-11-23T06:08:04.193Z,9.57
2018-11-23T06:10:32.834Z,9.53
2018-11-23T06:13:01.301Z,9.87
2018-11-23T06:15:29.783Z,8.00
2018-11-23T06:17:58.236Z,9.57
2018-11-23T06:20:26.715Z,7.30
2018-11-23T06:22:55.871Z,5.47
2018-11-23T06:25:34.840Z,5.60
2018-11-23T06:28:03.299Z,7.33
2018-11-23T06:30:31.925Z,9.23
2018-11-23T06:33:11.651Z,7.33
2018-11-23T06:35:40.113Z,9.13
2018-11-23T06:38:08.565Z,12.73
2018-11-23T06:40:37.027Z,9.87
2018-11-23T06:45:42.659Z,8.57
2018-11-23T06:48:11.529Z,8.27
2018-11-23T06:50:39.998Z,10.43
2018-11-23T06:53:08.560Z,9.40
2018-11-23T06:55:37.058Z,12.73
2018-11-23T06:58:05.920Z,15.47
2018-11-23T07:00:34.486Z,16.10
2018-11-23T07:03:03.034Z,19.00
2018-11-23T07:05:31.603Z,17.57
2018-11-23T07:08:00.066Z,14.23
2018-11-23T07:10:28.523Z,13.90
2018-11-23T07:12:57.004Z,17.40
2018-11-23T07:15:25.536Z,17.30
2018-11-23T07:17:54.011Z,15.43
2018-11-23T07:20:22.481Z,14.67
2018-11-23T07:22:50.991Z,15.63
2018-11-23T07:25:19.475Z,13.77
2018-11-23T07:27:47.927Z,14.23
2018-11-23T07:30:19.877Z,12.50
2018-11-23T07:32:48.356Z,12.03
2018-11-23T07:35:17.040Z,12.10
2018-11-23T07:37:45.520Z,15.70
2018-11-23T07:40:27.889Z,10.33
2018-11-23T07:42:56.820Z,10.77
2018-11-23T07:45:25.271Z,13.43
2018-11-23T07:47:53.731Z,13.70
2018-11-23T07:50:22.262Z,9.60
2018-11-23T07:52:50.721Z,11.67
2018-11-23T07:55:19.194Z,11.43
2018-11-23T07:57:47.667Z,10.27
2018-11-23T08:00:19.377Z,13.00
2018-11-23T08:02:48.362Z,12.90
2018-11-23T08:05:17.780Z,7.50
2018-11-23T08:07:46.263Z,9.20
2018-11-23T08:10:14.816Z,8.77
2018-11-23T08:12:44.722Z,9.30
2018-11-23T08:15:15.898Z,11.10
2018-11-23T08:17:44.420Z,8.93
2018-11-23T08:20:14.602Z,13.40
2018-11-23T08:22:43.239Z,6.73
2018-11-23T08:25:12.984Z,7.43
2018-11-23T08:27:42.032Z,9.60
2018-11-23T08:30:17.207Z,9.03
2018-11-23T08:32:45.760Z,10.43
2018-11-23T08:35:14.643Z,7.83
2018-11-23T08:37:43.209Z,9.83
2018-11-23T08:40:14.857Z,8.50
2018-11-23T08:42:43.916Z,8.30
2018-11-23T08:45:13.904Z,7.50
2018-11-23T08:47:42.381Z,8.80
2018-11-23T08:50:15.836Z,6.73
2018-11-23T08:52:44.344Z,7.23
2018-11-23T08:55:13.824Z,8.40
2018-11-23T08:57:42.695Z,8.00
2018-11-23T09:00:17.316Z,8.47
2018-11-23T09:02:48.073Z,9.83
2018-11-23T09:05:16.948Z,11.57
2018-11-23T09:07:46.555Z,9.30
2018-11-23T09:10:17.092Z,13.30
2018-11-23T09:12:47.472Z,7.93
2018-11-23T09:15:16.194Z,13.53
2018-11-23T09:17:45.076Z,9.40
2018-11-23T09:20:14.289Z,10.03
2018-11-23T09:22:42.812Z,13.37
2018-11-23T09:25:14.033Z,13.03
2018-11-23T09:27:42.605Z,11.43
2018-11-23T09:30:15.898Z,8.97
2018-11-23T09:32:44.862Z,15.33
2018-11-23T09:35:13.400Z,14.80
2018-11-23T09:37:42.356Z,8.13
2018-11-23T09:40:13.910Z,9.10
2018-11-23T09:42:42.467Z,10.00
2018-11-23T09:45:14.300Z,9.80
2018-11-23T09:47:43.254Z,8.93
2018-11-23T09:50:13.595Z,8.33
2018-11-23T09:52:42.679Z,8.17
2018-11-23T09:55:11.610Z,7.93
2018-11-23T09:57:40.319Z,11.37
2018-11-23T10:00:16.342Z,11.00
2018-11-23T10:02:45.694Z,9.30
2018-11-23T10:05:15.109Z,7.50
2018-11-23T10:07:44.946Z,8.03
2018-11-23T10:10:14.324Z,7.83
2018-11-23T10:12:43.211Z,7.63
2018-11-23T10:15:13.227Z,10.10
2018-11-23T10:17:41.716Z,5.77
2018-11-23T10:20:14.069Z,16.33
2018-11-23T10:22:42.883Z,8.50
2018-11-23T10:25:13.011Z,6.77
2018-11-23T10:27:42.187Z,9.10
2018-11-23T10:30:14.232Z,8.03
2018-11-23T10:32:42.935Z,7.80
2018-11-23T10:35:12.119Z,7.00
2018-11-23T10:37:41.528Z,7.87
2018-11-23T10:40:12.575Z,6.60
2018-11-23T10:42:41.260Z,6.57
2018-11-23T10:45:15.883Z,6.80
2018-11-23T10:47:44.547Z,6.90
2018-11-23T10:50:16.207Z,7.03
2018-11-23T10:52:44.750Z,8.40
2018-11-23T10:55:15.843Z,6.80
2018-11-23T10:57:44.315Z,7.40
2018-11-23T11:00:20.124Z,6.53
2018-11-23T11:02:55.124Z,6.83
2018-11-23T11:05:28.995Z,5.97
2018-11-23T11:07:59.135Z,9.30
2018-11-23T11:10:27.734Z,5.57
2018-11-23T11:12:56.213Z,9.23
2018-11-23T11:15:24.731Z,6.60
2018-11-23T11:17:53.215Z,9.07
2018-11-23T11:20:21.755Z,7.93
2018-11-23T11:22:50.423Z,8.93
2018-11-23T11:25:18.911Z,7.27
2018-11-23T11:27:47.552Z,6.77
2018-11-23T11:30:17.227Z,9.50
2018-11-23T11:32:46.407Z,7.23
2018-11-23T11:35:14.928Z,6.83
2018-11-23T11:37:45.726Z,8.10
2018-11-23T11:40:15.740Z,8.90
2018-11-23T11:42:44.539Z,6.10
2018-11-23T11:45:18.243Z,6.90
2018-11-23T11:47:47.323Z,8.63
2018-11-23T11:50:16.022Z,6.13
2018-11-23T11:52:46.049Z,6.47
2018-11-23T11:55:16.783Z,6.43
2018-11-23T11:57:45.959Z,7.23
2018-11-23T12:00:17.343Z,6.40
2018-11-23T12:02:46.107Z,6.80
2018-11-23T12:05:14.891Z,7.80
2018-11-23T12:07:43.348Z,7.53
2018-11-23T12:10:14.567Z,7.00
2018-11-23T12:12:43.055Z,7.47
2018-11-23T12:15:12.687Z,7.33
2018-11-23T12:17:41.614Z,8.07
2018-11-23T12:20:12.725Z,9.13
2018-11-23T12:22:41.423Z,6.37
2018-11-23T12:25:10.460Z,13.73
2018-11-23T12:27:38.915Z,7.47
2018-11-23T12:30:13.108Z,10.87
2018-11-23T12:32:42.119Z,9.90
2018-11-23T12:35:12.135Z,9.47
2018-11-23T12:37:40.803Z,12.80
2018-11-23T12:40:11.415Z,10.13
2018-11-23T12:42:40.136Z,18.27
2018-11-23T12:45:10.783Z,17.63
2018-11-23T12:47:39.359Z,16.77
2018-11-23T12:50:13.656Z,13.67
2018-11-23T12:52:42.132Z,24.50
2018-11-23T12:55:11.128Z,18.43
2018-11-23T12:57:40.031Z,18.67
2018-11-23T13:00:12.911Z,16.73
2018-11-23T13:02:41.367Z,13.40
2018-11-23T13:05:09.907Z,11.93
2018-11-23T13:07:38.355Z,12.53
2018-11-23T13:10:09.278Z,18.50
2018-11-23T13:12:37.755Z,18.20
2018-11-23T13:15:06.431Z,17.23
2018-11-23T13:17:34.895Z,14.53
2018-11-23T13:20:03.904Z,16.13
2018-11-23T13:22:32.411Z,14.47
2018-11-23T13:25:00.881Z,12.50
2018-11-23T13:27:29.335Z,15.23
2018-11-23T13:29:57.790Z,18.70
2018-11-23T13:32:26.234Z,14.73
2018-11-23T13:34:54.687Z,14.80
2018-11-23T13:37:23.133Z,14.53
2018-11-23T13:39:51.580Z,18.80
2018-11-23T13:42:20.092Z,15.50
2018-11-23T13:44:48.535Z,14.80
2018-11-23T13:47:16.992Z,16.00
2018-11-23T13:49:45.439Z,13.20
2018-11-23T13:52:13.888Z,17.50
2018-11-23T13:54:42.387Z,16.30
2018-11-23T13:57:10.847Z,14.53
2018-11-23T13:59:39.576Z,17.30
2018-11-23T14:02:08.045Z,15.17
2018-11-23T14:04:36.519Z,15.07
2018-11-23T14:07:05.300Z,14.97
2018-11-23T14:09:33.771Z,16.80
2018-11-23T14:12:02.252Z,15.63
2018-11-23T14:14:30.716Z,13.77
2018-11-23T14:16:59.177Z,17.83
2018-11-23T14:19:27.631Z,18.40
2018-11-23T14:21:56.167Z,15.40
2018-11-23T14:24:24.636Z,21.30
2018-11-23T14:26:53.135Z,15.00
2018-11-23T14:29:21.719Z,12.13
2018-11-23T14:31:50.187Z,21.17
2018-11-23T14:34:18.659Z,17.80
2018-11-23T14:36:47.136Z,13.77
2018-11-23T14:39:15.596Z,15.93
2018-11-23T14:41:44.059Z,18.17
2018-11-23T14:44:12.591Z,16.83
2018-11-23T14:46:41.051Z,18.63
2018-11-23T14:49:09.528Z,16.60
2018-11-23T14:51:38.003Z,15.47
2018-11-23T14:54:06.502Z,17.27
2018-11-23T14:56:34.963Z,17.83
2018-11-23T14:59:03.484Z,18.87
2018-11-23T15:01:31.943Z,20.00
2018-11-23T15:04:00.399Z,20.67
2018-11-23T15:06:28.858Z,23.30
2018-11-23T15:08:57.585Z,20.87
2018-11-23T15:11:26.048Z,24.37
2018-11-23T15:13:54.501Z,25.90
2018-11-23T15:16:22.975Z,20.93
2018-11-23T15:18:51.507Z,23.57
2018-11-23T15:21:20.998Z,24.10
2018-11-23T15:23:48.467Z,23.80
2018-11-23T15:26:16.943Z,24.33
2018-11-23T15:28:45.411Z,24.27
2018-11-23T15:31:13.874Z,20.63
2018-11-23T15:33:42.335Z,19.87
2018-11-23T15:36:10.811Z,23.53
2018-11-23T15:38:39.275Z,18.67
2018-11-23T15:41:07.759Z,24.47
2018-11-23T15:43:36.270Z,27.40
2018-11-23T15:46:05.099Z,21.43
2018-11-23T15:48:33.549Z,26.60
2018-11-23T15:51:07.335Z,26.27
2018-11-23T15:53:36.115Z,19.87
2018-11-23T15:56:04.723Z,24.07
2018-11-23T15:58:33.187Z,32.90
2018-11-23T16:01:01.685Z,21.07
2018-11-23T16:03:30.176Z,22.37
2018-11-23T16:05:58.802Z,23.80
2018-11-23T16:08:27.263Z,21.43
2018-11-23T16:10:55.715Z,29.30
2018-11-23T16:13:24.183Z,23.10
2018-11-23T16:15:52.643Z,23.57
2018-11-23T16:18:21.128Z,24.00
2018-11-23T16:20:49.621Z,21.07
2018-11-23T16:23:19.523Z,20.67
2018-11-23T16:25:48.624Z,21.97
2018-11-23T16:28:17.125Z,19.27
2018-11-23T16:30:47.005Z,20.37
2018-11-23T16:33:17.635Z,24.80
2018-11-23T16:35:46.241Z,25.10
2018-11-23T16:38:16.374Z,24.10
2018-11-23T16:40:52.847Z,21.97
2018-11-23T16:43:21.343Z,18.17
2018-11-23T16:45:49.839Z,20.17
2018-11-23T16:48:19.218Z,22.23
2018-11-23T16:50:47.865Z,18.97
2018-11-23T16:53:16.323Z,29.07
2018-11-23T16:55:44.812Z,21.60
2018-11-23T16:58:13.922Z,17.37
2018-11-23T17:00:43.676Z,24.57
2018-11-23T17:03:13.846Z,20.40
2018-11-23T17:05:43.861Z,18.93
2018-11-23T17:08:12.328Z,17.70
2018-11-23T17:10:40.855Z,22.20
2018-11-23T17:13:09.558Z,17.33
2018-11-23T17:15:38.105Z,20.70
2018-11-23T17:18:07.051Z,19.37
2018-11-23T17:20:36.120Z,19.20
2018-11-23T17:23:05.834Z,20.50
2018-11-23T17:25:34.414Z,19.73
2018-11-23T17:28:04.615Z,19.10
2018-11-23T17:30:34.015Z,19.33
2018-11-23T17:33:02.525Z,22.47
2018-11-23T17:35:31.263Z,20.80
2018-11-23T17:37:59.804Z,27.20
2018-11-23T17:40:30.802Z,22.73
2018-11-23T17:42:59.267Z,26.80
2018-11-23T17:45:30.008Z,24.40
2018-11-23T17:47:58.527Z,21.37
2018-11-23T17:50:28.410Z,23.00
2018-11-23T17:52:57.087Z,22.07
2018-11-23T17:55:25.554Z,22.00
2018-11-23T17:57:55.076Z,20.33
2018-11-23T18:00:27.067Z,24.27
2018-11-23T18:02:56.263Z,25.43
2018-11-23T18:05:25.732Z,21.70
2018-11-23T18:07:54.351Z,22.10
2018-11-23T18:10:25.064Z,20.20
2018-11-23T18:12:54.153Z,21.97
2018-11-23T18:15:25.336Z,20.13
2018-11-23T18:17:54.812Z,21.90
2018-11-23T18:20:24.303Z,25.47
2018-11-23T18:22:53.613Z,20.47
2018-11-23T18:25:23.540Z,20.90
2018-11-23T18:27:57.454Z,22.67
2018-11-23T18:30:25.923Z,25.53
2018-11-23T18:32:54.387Z,20.83
2018-11-23T18:35:23.192Z,23.57
2018-11-23T18:37:51.684Z,22.60
2018-11-23T18:40:20.165Z,28.30
2018-11-23T18:42:48.639Z,17.97
2018-11-23T18:45:17.144Z,24.73
2018-11-23T18:47:45.600Z,23.63
2018-11-23T18:50:16.127Z,23.80
2018-11-23T18:52:44.587Z,24.60
2018-11-23T18:55:18.310Z,24.47
2018-11-23T18:57:42.829Z,24.43
2018-11-23T19:00:13.026Z,27.17
2018-11-23T19:02:42.876Z,21.80
2018-11-23T19:05:19.858Z,22.23
2018-11-23T19:07:48.722Z,23.63
2018-11-23T19:10:17.668Z,26.90
2018-11-23T19:12:46.430Z,25.10
2018-11-23T19:15:16.230Z,33.13
2018-11-23T19:17:45.261Z,29.40
2018-11-23T19:20:17.363Z,24.07
2018-11-23T19:22:47.529Z,25.27
2018-11-23T19:25:16.560Z,32.40
2018-11-23T19:27:45.591Z,26.83
2018-11-23T19:30:16.549Z,23.30
2018-11-23T19:32:45.569Z,26.90
2018-11-23T19:35:14.685Z,24.33
2018-11-23T19:37:44.041Z,21.70
2018-11-23T19:40:15.215Z,23.77
2018-11-23T19:42:45.131Z,20.63
2018-11-23T19:45:15.301Z,20.77
2018-11-23T19:47:44.158Z,22.37
2018-11-23T19:50:15.564Z,22.37
2018-11-23T19:52:44.080Z,26.40
2018-11-23T19:55:14.611Z,24.30
2018-11-23T19:57:43.091Z,22.60
2018-11-23T20:00:28.059Z,26.07
2018-11-23T20:02:56.539Z,23.43
2018-11-23T20:05:25.044Z,24.17
2018-11-23T20:07:54.939Z,20.97
2018-11-23T20:10:24.004Z,21.30
2018-11-23T20:12:54.739Z,25.80
2018-11-23T20:15:23.261Z,28.23
2018-11-23T20:17:51.747Z,22.70
2018-11-23T20:20:20.249Z,25.73
2018-11-23T20:22:49.648Z,28.00
2018-11-23T20:25:19.204Z,32.10
2018-11-23T20:28:02.411Z,26.90
2018-11-23T20:30:30.903Z,25.13
2018-11-23T20:32:59.395Z,29.23
2018-11-23T20:35:27.926Z,27.90
2018-11-23T20:37:56.400Z,26.20
2018-11-23T20:40:24.875Z,30.40
2018-11-23T20:42:53.360Z,38.63
2018-11-23T20:45:21.874Z,30.43
2018-11-23T20:47:50.363Z,32.47
2018-11-23T20:50:19.023Z,29.90
2018-11-23T20:52:47.510Z,35.90
2018-11-23T20:55:17.169Z,26.77
2018-11-23T20:57:45.671Z,30.63
2018-11-23T21:00:15.067Z,32.00
2018-11-23T21:02:43.919Z,30.43
2018-11-23T21:05:13.493Z,36.37
2018-11-23T21:07:42.029Z,35.00
2018-11-23T21:10:20.137Z,35.60
2018-11-23T21:12:43.419Z,35.23
2018-11-23T21:15:18.197Z,31.10
2018-11-23T21:17:46.676Z,38.17
2018-11-23T21:20:15.179Z,33.30
2018-11-23T21:22:43.651Z,28.80
2018-11-23T21:25:12.195Z,32.23
2018-11-23T21:27:40.703Z,38.07
2018-11-23T21:30:11.795Z,28.60
2018-11-23T21:32:40.276Z,34.10
2018-11-23T21:35:09.628Z,29.57
2018-11-23T21:37:38.143Z,26.50
2018-11-23T21:40:08.588Z,29.70
2018-11-23T21:42:37.065Z,28.77
2018-11-23T21:45:09.023Z,25.53
2018-11-23T21:47:37.824Z,25.73
2018-11-23T21:50:09.124Z,28.30
2018-11-23T21:52:37.581Z,30.47
2018-11-23T21:55:08.172Z,30.63
2018-11-23T21:57:36.644Z,33.60
2018-11-23T22:00:06.021Z,30.13
2018-11-23T22:02:34.479Z,31.90
2018-11-23T22:05:02.944Z,36.03
2018-11-23T22:07:31.486Z,29.90
2018-11-23T22:09:59.935Z,29.90
2018-11-23T22:12:28.395Z,30.47
2018-11-23T22:14:56.856Z,29.47
2018-11-23T22:17:25.327Z,35.53
2018-11-23T22:19:53.775Z,35.00
2018-11-23T22:22:22.239Z,32.37
2018-11-23T22:24:50.685Z,26.97
2018-11-23T22:27:19.151Z,32.73
2018-11-23T22:29:47.615Z,33.30
2018-11-23T22:32:16.091Z,37.43
2018-11-23T22:34:44.557Z,34.13
2018-11-23T22:37:13.030Z,30.97
2018-11-23T22:39:41.499Z,38.07
2018-11-23T22:42:09.965Z,26.33
2018-11-23T22:44:38.408Z,33.43
2018-11-23T22:47:06.877Z,31.10
2018-11-23T22:49:35.335Z,29.00
2018-11-23T22:52:03.831Z,30.20
2018-11-23T22:54:32.307Z,27.93
2018-11-23T22:57:00.764Z,26.63
2018-11-23T22:59:29.222Z,31.07
2018-11-23T23:01:57.696Z,33.50
2018-11-23T23:04:26.205Z,35.90
2018-11-23T23:06:54.662Z,26.93
2018-11-23T23:09:23.116Z,33.63
2018-11-23T23:11:51.571Z,30.73
2018-11-23T23:14:20.038Z,28.90
2018-11-23T23:16:48.507Z,33.93
2018-11-23T23:19:16.971Z,31.57
2018-11-23T23:21:45.506Z,32.10
2018-11-23T23:24:13.978Z,32.37
2018-11-23T23:26:42.449Z,29.47
2018-11-23T23:29:10.899Z,26.20
2018-11-23T23:31:39.370Z,25.70
2018-11-23T23:34:07.827Z,30.13
2018-11-23T23:36:36.347Z,27.00
2018-11-23T23:39:07.319Z,26.07
2018-11-23T23:41:35.779Z,26.50
2018-11-23T23:44:04.364Z,22.00
2018-11-23T23:46:32.817Z,23.07
2018-11-23T23:49:01.298Z,29.50
2018-11-23T23:51:29.767Z,23.10
2018-11-23T23:53:58.231Z,25.60
2018-11-23T23:56:26.687Z,25.87
2018-11-23T23:58:55.147Z,24.40
